3  °C
Temperature
3  °C
  Dewpoint
   Humidity
Temp | Dewpoint | Humidity
8  km/h
Wind Speed
5  mph
Wind Speed
4  kts
Wind Speed
240°
West South
West

Wind Speed
Mostly Cloudy
Conditions
Pressure 1014.9 (hPa) - 29.92 (in)
Visibility 6.2 (mi) - 10.0 (km)

Current Conditions
ETIC
Location 6km (3.2mi)
Metar :ETIC 052156Z AUTO 24004KT 9999 BKN018 03/03 A2992 RMK AO2 BKN V SCT SLP149 T00340033 FZRANO $
Tue 5th March 22:56 pm

Airport
https://www.checkwx.com/
  Metar Aviation API Data Provided by https://www.checkwx.com/ CSS/SVG/PHP scripts by weather34.com © 2015-2019